Time;durP1;ratioP1;P1;durP2;ratioP2;P2;SDS_P1;SDS_P2;PMS_P1;PMS_P2;Temp;Humidity;BMP_temperature;BMP_pressure;BME280_temperature;BME280_humidity;BME280_pressure;Samples;Min_cycle;Max_cycle;Signal;HPM_P1;HPM_P2
2024/01/12 00:02:08;;;;;;;84.68;40.85;;;-3.70;99.90;;;;;;4927230;29;20406;-76
2024/01/12 00:04:39;;;;;;;81.45;40.13;;;-3.80;99.90;;;;;;4926101;29;20134;-76
2024/01/12 00:07:29;;;;;;;81.93;41.28;;;-3.80;99.90;;;;;;4927181;29;20052;-76
2024/01/12 00:09:55;;;;;;;81.75;40.05;;;-3.80;99.90;;;;;;4910733;29;20035;-77
2024/01/12 00:12:23;;;;;;;85.45;42.05;;;-3.80;99.90;;;;;;4927424;29;20050;-77
2024/01/12 00:18:36;;;;;;;79.20;38.65;;;-3.70;99.90;;;;;;4936229;29;20097;-76
2024/01/12 00:21:02;;;;;;;79.40;39.00;;;-3.80;99.90;;;;;;4949038;29;20031;-77
2024/01/12 00:23:31;;;;;;;77.35;39.50;;;-3.80;99.90;;;;;;4948487;29;20202;-73
2024/01/12 00:26:02;;;;;;;77.35;39.63;;;-3.90;99.90;;;;;;4965173;29;20039;-77
2024/01/12 00:28:28;;;;;;;81.60;40.78;;;-3.90;99.90;;;;;;4948058;29;20050;-78
2024/01/12 00:31:06;;;;;;;80.05;41.03;;;-3.80;99.90;;;;;;4964486;29;20038;-77
2024/01/12 00:33:38;;;;;;;80.25;40.47;;;-3.70;99.90;;;;;;4931138;29;20164;-76
2024/01/12 00:36:08;;;;;;;78.10;39.40;;;-3.70;99.90;;;;;;4929900;29;20052;-78
2024/01/12 00:38:44;;;;;;;75.88;37.88;;;-3.60;99.90;;;;;;4971322;28;20030;-76
2024/01/12 00:41:12;;;;;;;71.60;37.72;;;-3.60;99.90;;;;;;5007706;28;20204;-76
2024/01/12 00:43:43;;;;;;;72.68;36.70;;;-3.60;99.90;;;;;;4990742;28;20069;-75
2024/01/12 00:46:08;;;;;;;74.38;37.50;;;-3.70;99.90;;;;;;5007438;28;20048;-75
2024/01/12 00:48:35;;;;;;;74.13;37.35;;;-3.70;99.90;;;;;;5027625;28;20041;-77
2024/01/12 00:51:06;;;;;;;76.50;37.88;;;-3.70;99.90;;;;;;5023207;28;20068;-78
2024/01/12 00:53:37;;;;;;;71.65;37.33;;;-3.70;99.90;;;;;;5022772;28;20037;-76
2024/01/12 00:56:09;;;;;;;80.65;37.50;;;-3.80;99.90;;;;;;5023312;28;20065;-76
2024/01/12 00:58:35;;;;;;;82.65;40.17;;;-3.90;99.90;;;;;;5023173;28;20181;-75
2024/01/12 01:01:13;;;;;;;78.55;38.72;;;-3.90;99.90;;;;;;5023532;28;20076;-77
2024/01/12 01:03:38;;;;;;;77.80;39.17;;;-3.90;99.90;;;;;;5024285;28;20038;-77
2024/01/12 01:06:16;;;;;;;79.07;38.88;;;-4.00;99.90;;;;;;5024369;28;20044;-77
2024/01/12 01:12:38;;;;;;;78.15;38.30;;;-4.00;99.90;;;;;;5012335;28;20033;-77
2024/01/12 01:15:07;;;;;;;78.32;37.75;;;-4.00;99.90;;;;;;5044061;28;20072;-76
2024/01/12 01:17:54;;;;;;;74.93;39.10;;;-3.90;99.90;;;;;;5040255;28;20099;-76
2024/01/12 01:20:40;;;;;;;77.32;38.65;;;-3.90;99.90;;;;;;5041578;28;20033;-77
2024/01/12 01:23:26;;;;;;;74.53;37.40;;;-3.90;99.90;;;;;;5025434;28;20292;-77
2024/01/12 01:25:53;;;;;;;79.72;38.58;;;-3.90;99.90;;;;;;5023567;28;20100;-77
2024/01/12 01:28:29;;;;;;;74.93;37.28;;;-3.90;99.90;;;;;;5022974;28;20049;-79
2024/01/12 01:30:57;;;;;;;76.80;38.85;;;-3.90;99.90;;;;;;5040600;28;20162;-76
2024/01/12 01:33:23;;;;;;;73.95;38.75;;;-4.00;99.90;;;;;;5043606;28;20079;-77
2024/01/12 01:35:57;;;;;;;80.70;40.55;;;-4.00;99.90;;;;;;5043222;28;20101;-77
2024/01/12 01:38:23;;;;;;;79.25;39.60;;;-4.00;99.90;;;;;;5025871;28;20255;-77
2024/01/12 01:40:49;;;;;;;84.80;41.70;;;-4.10;99.90;;;;;;5023416;28;20025;-77
2024/01/12 01:43:17;;;;;;;80.72;42.28;;;-4.10;99.90;;;;;;5025910;28;20030;-76
2024/01/12 01:45:43;;;;;;;85.50;42.83;;;-4.20;99.90;;;;;;5022591;28;20137;-76
2024/01/12 01:48:09;;;;;;;87.63;43.30;;;-4.20;99.90;;;;;;5023734;28;20021;-77
2024/01/12 01:50:39;;;;;;;85.32;43.47;;;-4.20;99.90;;;;;;5023010;28;20034;-76
2024/01/12 01:53:08;;;;;;;83.90;42.80;;;-4.20;99.90;;;;;;5023919;28;20034;-77
2024/01/12 01:55:40;;;;;;;90.05;42.63;;;-4.20;99.90;;;;;;5021324;28;20088;-76
2024/01/12 01:58:12;;;;;;;82.35;40.15;;;-4.30;99.90;;;;;;5024549;28;20029;-76
2024/01/12 02:00:38;;;;;;;83.82;41.47;;;-4.30;99.90;;;;;;5025621;28;20264;-76
2024/01/12 02:03:17;;;;;;;89.28;42.63;;;-4.20;99.90;;;;;;5005810;28;20018;-75
2024/01/12 02:05:50;;;;;;;77.43;40.38;;;-4.20;99.90;;;;;;5022781;28;20097;-78
2024/01/12 02:08:18;;;;;;;85.25;40.75;;;-4.20;99.90;;;;;;5023547;28;20367;-77
2024/01/12 02:11:02;;;;;;;81.70;38.90;;;-4.20;99.90;;;;;;4988952;28;20285;-75
2024/01/12 02:13:31;;;;;;;83.10;38.65;;;-4.20;99.90;;;;;;5021351;28;20340;-76
2024/01/12 02:16:06;;;;;;;74.22;37.80;;;-4.20;99.90;;;;;;5022915;28;20049;-75
2024/01/12 02:18:31;;;;;;;80.18;38.72;;;-4.20;99.90;;;;;;5033292;28;20037;-75
2024/01/12 02:21:04;;;;;;;80.47;40.22;;;-4.20;99.90;;;;;;5008783;28;20092;-76
2024/01/12 02:23:29;;;;;;;80.47;40.38;;;-4.30;99.90;;;;;;5042225;28;20045;-76
2024/01/12 02:26:01;;;;;;;86.20;40.45;;;-4.30;99.90;;;;;;5042908;28;20018;-76
2024/01/12 02:28:27;;;;;;;80.65;40.15;;;-4.30;99.90;;;;;;5041625;28;20048;-76
2024/01/12 02:31:02;;;;;;;73.93;38.78;;;-4.30;99.90;;;;;;5025494;28;20018;-76
2024/01/12 02:33:37;;;;;;;83.85;39.70;;;-4.30;99.90;;;;;;5022284;28;20038;-77
2024/01/12 02:36:03;;;;;;;86.00;40.58;;;-4.30;99.90;;;;;;5020901;28;20096;-76
2024/01/12 02:42:16;;;;;;;80.88;39.13;;;-4.40;99.90;;;;;;4982106;28;20096;-77
2024/01/12 02:44:48;;;;;;;78.15;40.25;;;-4.30;99.90;;;;;;4965231;28;20111;-77
2024/01/12 02:47:14;;;;;;;81.28;39.75;;;-4.40;99.90;;;;;;4946760;28;20038;-77
2024/01/12 02:49:39;;;;;;;83.47;39.40;;;-4.40;99.90;;;;;;4965037;28;20368;-76
2024/01/12 02:52:05;;;;;;;79.03;38.90;;;-4.40;99.90;;;;;;4980856;28;20274;-76
2024/01/12 02:54:34;;;;;;;90.07;41.92;;;-4.40;99.90;;;;;;4981226;28;20093;-76
2024/01/12 02:57:00;;;;;;;79.93;39.28;;;-4.50;99.90;;;;;;4981335;28;20108;-76
2024/01/12 02:59:25;;;;;;;85.32;41.38;;;-4.60;99.90;;;;;;4981526;28;20047;-77
2024/01/12 03:01:59;;;;;;;85.53;42.67;;;-4.50;99.90;;;;;;4981223;28;20130;-75
2024/01/12 03:04:39;;;;;;;66.77;33.70;;;-4.50;99.90;;;;;;4965207;28;20024;-77
2024/01/12 03:07:07;;;;;;;89.22;43.35;;;-4.50;99.90;;;;;;4981443;28;20042;-76
2024/01/12 03:09:38;;;;;;;84.22;42.78;;;-4.60;99.90;;;;;;4958570;28;20039;-77
2024/01/12 03:12:13;;;;;;;86.22;44.00;;;-4.60;99.90;;;;;;4965311;28;20039;-76
2024/01/12 03:14:59;;;;;;;79.70;41.58;;;-4.60;99.90;;;;;;4964286;28;20327;-78
2024/01/12 03:17:37;;;;;;;81.43;41.75;;;-4.60;99.90;;;;;;4966538;28;20106;-77
2024/01/12 03:20:08;;;;;;;77.82;39.78;;;-4.60;99.90;;;;;;5004231;28;20105;-75
2024/01/12 03:22:35;;;;;;;75.78;39.53;;;-4.60;99.90;;;;;;5003815;28;20225;-77
2024/01/12 03:25:10;;;;;;;66.90;32.47;;;-4.60;99.90;;;;;;5004816;28;20048;-78
2024/01/12 03:27:42;;;;;;;80.82;40.47;;;-4.60;99.90;;;;;;5026635;28;20029;-76
2024/01/12 03:30:14;;;;;;;81.38;40.08;;;-4.70;99.90;;;;;;5030583;28;20313;-77
2024/01/12 03:32:41;;;;;;;85.05;41.85;;;-4.70;99.90;;;;;;5021673;28;20077;-75
2024/01/12 03:37:57;;;;;;;87.15;42.25;;;-4.80;99.90;;;;;;4942548;29;20251;-77
2024/01/12 03:40:42;;;;;;;83.63;42.95;;;-4.80;99.90;;;;;;4942583;29;20095;-76
2024/01/12 03:43:17;;;;;;;81.78;42.55;;;-4.80;99.90;;;;;;5004828;28;20377;-77
2024/01/12 03:45:42;;;;;;;83.03;41.75;;;-4.80;99.90;;;;;;5021412;28;20040;-75
2024/01/12 03:48:23;;;;;;;84.18;41.03;;;-4.80;99.90;;;;;;5021882;28;20080;-76
2024/01/12 03:50:49;;;;;;;83.75;40.25;;;-4.90;99.90;;;;;;5004088;28;20030;-75
2024/01/12 03:53:32;;;;;;;83.30;41.65;;;-4.90;99.90;;;;;;5004429;28;20106;-76
2024/01/12 03:56:22;;;;;;;83.32;41.92;;;-4.90;99.90;;;;;;5022048;28;20320;-76
2024/01/12 03:58:48;;;;;;;82.78;40.60;;;-4.90;99.90;;;;;;5021543;28;20030;-76
2024/01/12 04:01:21;;;;;;;77.90;40.30;;;-4.90;99.90;;;;;;5021043;28;20038;-75
2024/01/12 04:04:07;;;;;;;89.28;42.83;;;-4.80;99.90;;;;;;5018003;28;20033;-77
2024/01/12 04:06:40;;;;;;;83.93;43.55;;;-4.80;99.90;;;;;;5003911;28;20026;-75
2024/01/12 04:09:24;;;;;;;87.65;42.03;;;-4.80;99.90;;;;;;5020719;28;20076;-76
2024/01/12 04:12:08;;;;;;;83.35;41.75;;;-4.80;99.90;;;;;;5020615;28;20041;-76
2024/01/12 04:14:46;;;;;;;86.00;42.42;;;-4.80;99.90;;;;;;5021804;28;20108;-77
2024/01/12 04:17:23;;;;;;;76.03;39.83;;;-4.90;99.90;;;;;;5021974;28;20030;-75
2024/01/12 04:20:08;;;;;;;86.10;42.83;;;-4.90;99.90;;;;;;5007129;28;20030;-78
2024/01/12 04:22:36;;;;;;;84.15;42.20;;;-4.90;99.90;;;;;;5027887;28;20025;-75
2024/01/12 04:25:08;;;;;;;84.13;42.88;;;-5.00;99.90;;;;;;5041522;28;20052;-76
2024/01/12 04:27:53;;;;;;;91.32;46.10;;;-5.00;99.90;;;;;;5025042;28;20159;-77
2024/01/12 04:30:28;;;;;;;87.95;44.92;;;-5.00;99.90;;;;;;5031860;28;20035;-76
2024/01/12 04:32:57;;;;;;;95.43;47.03;;;-5.00;99.90;;;;;;5044907;28;20312;-77
2024/01/12 04:35:25;;;;;;;93.80;47.03;;;-5.00;99.90;;;;;;5045059;28;20032;-76
2024/01/12 04:38:12;;;;;;;99.85;46.80;;;-5.00;99.90;;;;;;5028480;28;20033;-77
2024/01/12 04:40:40;;;;;;;76.00;36.33;;;-4.90;99.90;;;;;;5025100;28;20048;-76
2024/01/12 04:43:09;;;;;;;100.43;47.38;;;-5.00;99.90;;;;;;5007582;28;20268;-75
2024/01/12 04:45:44;;;;;;;92.97;46.38;;;-5.00;99.90;;;;;;5007038;28;20247;-77
2024/01/12 04:48:16;;;;;;;88.07;45.30;;;-5.00;99.90;;;;;;5024729;28;20045;-75
2024/01/12 04:50:41;;;;;;;91.43;46.55;;;-5.00;99.90;;;;;;5024824;28;20034;-75
2024/01/12 04:53:10;;;;;;;89.90;43.55;;;-5.00;99.90;;;;;;4991219;28;20224;-77
2024/01/12 04:55:39;;;;;;;94.70;46.30;;;-5.00;99.90;;;;;;5040315;28;20079;-77
2024/01/12 04:58:04;;;;;;;95.90;46.25;;;-5.00;99.90;;;;;;5044363;28;20040;-75
2024/01/12 05:00:36;;;;;;;93.47;45.95;;;-5.00;99.90;;;;;;5044035;28;20021;-75
2024/01/12 05:03:07;;;;;;;91.43;45.65;;;-5.10;99.90;;;;;;5044356;28;20037;-76
2024/01/12 05:05:36;;;;;;;91.50;45.30;;;-5.10;99.90;;;;;;5044485;28;20049;-76
2024/01/12 05:11:25;;;;;;;93.18;45.70;;;-5.10;99.90;;;;;;5012786;28;20160;-75
2024/01/12 05:13:57;;;;;;;87.78;43.72;;;-5.10;99.90;;;;;;5026333;28;20033;-77
2024/01/12 05:16:32;;;;;;;94.72;44.45;;;-5.10;99.90;;;;;;5044547;28;20079;-76
2024/01/12 05:19:26;;;;;;;92.57;44.42;;;-5.10;99.90;;;;;;5035667;28;20279;-78
2024/01/12 05:21:58;;;;;;;91.55;45.30;;;-5.10;99.90;;;;;;5043329;28;20033;-75
2024/01/12 05:24:24;;;;;;;90.43;44.50;;;-5.10;99.90;;;;;;5044592;28;20032;-75
2024/01/12 05:27:02;;;;;;;89.63;44.15;;;-5.10;99.90;;;;;;5041448;28;20021;-76
2024/01/12 05:32:18;;;;;;;86.65;44.60;;;-5.10;99.90;;;;;;5011525;28;20053;-76
2024/01/12 05:34:59;;;;;;;86.55;44.53;;;-5.20;99.90;;;;;;5005699;28;20038;-75
2024/01/12 05:37:30;;;;;;;92.55;45.97;;;-5.30;99.90;;;;;;5023606;28;20381;-76
2024/01/12 05:39:55;;;;;;;92.97;44.30;;;-5.40;99.90;;;;;;5001423;28;20255;-76
2024/01/12 05:42:24;;;;;;;97.40;45.33;;;-5.50;99.90;;;;;;5024471;28;20076;-75
2024/01/12 05:45:08;;;;;;;92.95;45.08;;;-5.40;99.90;;;;;;5029989;28;20049;-78
2024/01/12 05:47:37;;;;;;;92.93;45.15;;;-5.40;99.90;;;;;;5028123;28;20029;-76
2024/01/12 05:50:03;;;;;;;93.60;45.95;;;-5.40;99.90;;;;;;5024042;28;20103;-77
2024/01/12 05:52:35;;;;;;;92.22;45.83;;;-5.40;99.90;;;;;;5023236;28;20052;-76
2024/01/12 05:55:07;;;;;;;98.05;46.40;;;-5.40;99.90;;;;;;5023582;28;20030;-76
2024/01/12 05:57:41;;;;;;;98.00;45.38;;;-5.40;99.90;;;;;;5023133;28;20110;-76
2024/01/12 06:00:16;;;;;;;102.25;48.20;;;-5.40;99.90;;;;;;5023603;28;20525;-78
2024/01/12 06:02:43;;;;;;;87.60;44.58;;;-5.40;99.90;;;;;;5023311;28;20045;-77
2024/01/12 06:06:08;;;;;;;97.40;44.63;;;-5.40;99.90;;;;;;5011988;28;20379;-76
2024/01/12 06:08:37;;;;;;;102.18;46.90;;;-5.40;99.90;;;;;;5022618;28;20025;-78
2024/01/12 06:11:16;;;;;;;101.45;46.47;;;-5.40;99.90;;;;;;5003041;28;20219;-78
2024/01/12 06:13:54;;;;;;;93.10;44.17;;;-5.40;99.90;;;;;;5022864;28;20093;-77
2024/01/12 06:16:40;;;;;;;91.50;44.50;;;-5.50;99.90;;;;;;5022250;28;20048;-77
2024/01/12 06:19:06;;;;;;;93.90;44.65;;;-5.50;99.90;;;;;;5005895;28;20058;-75
2024/01/12 06:21:52;;;;;;;96.18;44.15;;;-5.50;99.90;;;;;;5030826;28;20026;-75
2024/01/12 06:24:21;;;;;;;94.00;44.17;;;-5.40;99.90;;;;;;5025032;28;20068;-76
2024/01/12 06:26:52;;;;;;;95.97;44.70;;;-5.40;99.90;;;;;;5024464;28;20060;-75
2024/01/12 06:29:21;;;;;;;92.50;44.45;;;-5.30;99.90;;;;;;5039085;28;20353;-76
2024/01/12 06:31:47;;;;;;;94.30;44.95;;;-5.30;99.90;;;;;;5022300;28;20048;-75
2024/01/12 06:34:14;;;;;;;98.35;46.28;;;-5.40;99.90;;;;;;5003083;28;20092;-75
2024/01/12 06:36:52;;;;;;;95.10;45.28;;;-5.40;99.90;;;;;;5021606;28;20216;-75
2024/01/12 06:39:18;;;;;;;88.72;44.05;;;-5.40;99.90;;;;;;5041227;28;20040;-76
2024/01/12 06:42:10;;;;;;;90.10;44.25;;;-5.50;99.90;;;;;;5041739;28;20025;-75
2024/01/12 06:44:41;;;;;;;88.75;43.67;;;-5.50;99.90;;;;;;4951814;28;20321;-76
2024/01/12 06:47:07;;;;;;;92.82;45.80;;;-5.60;99.90;;;;;;5023433;28;20028;-76
2024/01/12 06:49:34;;;;;;;91.72;44.70;;;-5.60;99.90;;;;;;5035689;28;20041;-76
2024/01/12 06:52:03;;;;;;;85.35;43.13;;;-5.70;99.90;;;;;;4997891;28;20029;-75
2024/01/12 06:54:55;;;;;;;90.57;43.13;;;-5.80;99.90;;;;;;4988969;28;20026;-75
2024/01/12 06:57:20;;;;;;;92.60;43.80;;;-5.80;99.90;;;;;;4991981;28;20050;-75
2024/01/12 06:59:46;;;;;;;82.80;42.63;;;-5.80;99.90;;;;;;5002542;28;20030;-75
2024/01/12 07:02:12;;;;;;;90.95;43.75;;;-5.80;99.90;;;;;;5022210;28;20022;-75
2024/01/12 07:04:49;;;;;;;90.10;44.28;;;-5.70;99.90;;;;;;5021351;28;20030;-74
2024/01/12 07:07:24;;;;;;;89.47;43.67;;;-5.70;99.90;;;;;;5004587;28;20328;-76
2024/01/12 07:10:16;;;;;;;84.70;42.90;;;-5.70;99.90;;;;;;5021728;28;20034;-75
2024/01/12 07:12:42;;;;;;;86.75;43.53;;;-5.70;99.90;;;;;;4996191;28;20038;-75
2024/01/12 07:15:09;;;;;;;95.50;44.42;;;-5.70;99.90;;;;;;4967128;28;20093;-76
2024/01/12 07:17:35;;;;;;;84.70;41.92;;;-5.70;99.90;;;;;;5008412;28;20105;-75
2024/01/12 07:20:05;;;;;;;88.43;42.53;;;-5.70;99.90;;;;;;5022049;28;20014;-76
2024/01/12 07:22:30;;;;;;;93.10;44.58;;;-5.60;99.90;;;;;;5020422;28;20042;-76
2024/01/12 07:24:56;;;;;;;97.65;44.95;;;-5.60;99.90;;;;;;5021192;28;20060;-75
2024/01/12 07:27:29;;;;;;;97.25;45.53;;;-5.60;99.90;;;;;;5022323;28;20156;-75
2024/01/12 07:29:55;;;;;;;94.05;44.83;;;-5.60;99.90;;;;;;5013979;28;20194;-74
2024/01/12 07:32:20;;;;;;;91.82;43.83;;;-5.60;99.90;;;;;;5022115;28;20037;-76
2024/01/12 07:35:48;;;;;;;88.47;43.63;;;-5.60;99.90;;;;;;5021708;28;20022;-75
2024/01/12 07:38:23;;;;;;;86.60;42.15;;;-5.60;99.90;;;;;;4949011;29;20052;-77
2024/01/12 07:40:51;;;;;;;89.40;44.40;;;-5.60;99.90;;;;;;4960881;29;20094;-76
2024/01/12 07:43:37;;;;;;;90.60;44.47;;;-5.50;99.90;;;;;;4978099;28;20372;-76
2024/01/12 07:46:18;;;;;;;87.82;41.85;;;-5.40;99.90;;;;;;4980331;28;20058;-75
2024/01/12 07:48:51;;;;;;;82.35;42.88;;;-5.50;99.90;;;;;;4980113;28;20035;-76
2024/01/12 07:51:17;;;;;;;88.93;43.53;;;-5.50;99.90;;;;;;4964437;28;20066;-74
2024/01/12 07:53:43;;;;;;;89.13;43.42;;;-5.40;99.90;;;;;;4964328;28;20033;-75
2024/01/12 07:56:10;;;;;;;92.32;43.30;;;-5.40;99.90;;;;;;4964456;28;20055;-74
2024/01/12 07:58:35;;;;;;;94.22;44.00;;;-5.30;99.90;;;;;;4963609;28;20061;-75
2024/01/12 08:01:01;;;;;;;89.55;43.97;;;-5.30;99.90;;;;;;4981786;28;20041;-73
2024/01/12 08:03:42;;;;;;;87.45;43.53;;;-5.20;99.90;;;;;;4984118;28;20031;-73
2024/01/12 08:06:14;;;;;;;87.43;42.67;;;-5.20;99.90;;;;;;4984339;28;20098;-76
2024/01/12 08:08:53;;;;;;;94.47;44.30;;;-5.10;99.90;;;;;;4983774;28;20087;-77
2024/01/12 08:11:23;;;;;;;87.47;44.35;;;-5.00;99.90;;;;;;4967999;28;20094;-75
2024/01/12 08:13:49;;;;;;;86.82;42.10;;;-5.00;99.90;;;;;;4990801;28;20055;-75
2024/01/12 08:16:18;;;;;;;87.00;42.17;;;-5.00;99.90;;;;;;5044692;28;20056;-75
2024/01/12 08:21:43;;;;;;;89.70;43.30;;;-4.80;99.90;;;;;;5043101;28;20098;-74
2024/01/12 08:24:09;;;;;;;85.03;42.72;;;-4.80;99.90;;;;;;5044852;28;20396;-75
2024/01/12 08:26:34;;;;;;;87.80;44.28;;;-4.70;99.90;;;;;;5026691;28;20022;-75
2024/01/12 08:29:28;;;;;;;81.18;41.17;;;-4.70;99.90;;;;;;5026351;28;20350;-75
2024/01/12 08:31:54;;;;;;;85.97;42.60;;;-4.60;99.90;;;;;;5024592;28;20428;-75
2024/01/12 08:34:20;;;;;;;85.40;41.60;;;-4.50;99.90;;;;;;5024371;28;20038;-76
2024/01/12 08:36:48;;;;;;;82.10;40.78;;;-4.40;99.90;;;;;;5029669;28;20029;-76
2024/01/12 08:39:15;;;;;;;85.63;40.95;;;-4.40;99.90;;;;;;5044262;28;20021;-75
2024/01/12 08:41:41;;;;;;;80.95;39.75;;;-4.30;99.90;;;;;;5026828;28;20170;-76
2024/01/12 08:44:07;;;;;;;75.97;40.53;;;-4.20;99.90;;;;;;5044838;28;20052;-76
2024/01/12 08:46:33;;;;;;;83.68;40.95;;;-4.20;99.90;;;;;;5042946;28;20025;-75
2024/01/12 08:49:03;;;;;;;77.78;38.70;;;-4.10;99.90;;;;;;5027499;28;20049;-76
2024/01/12 08:51:31;;;;;;;79.25;39.58;;;-4.00;99.90;;;;;;5039731;28;20044;-76
2024/01/12 08:53:57;;;;;;;79.68;39.03;;;-3.90;99.90;;;;;;5011365;28;20068;-75
2024/01/12 08:56:25;;;;;;;77.35;39.55;;;-3.90;99.90;;;;;;5024021;28;20034;-76
2024/01/12 08:58:51;;;;;;;78.80;39.13;;;-3.80;99.90;;;;;;5006651;28;20085;-76
2024/01/12 09:01:20;;;;;;;75.82;39.13;;;-3.80;99.90;;;;;;5024200;28;20164;-74
2024/01/12 09:03:52;;;;;;;81.18;40.35;;;-3.70;99.90;;;;;;5023606;28;20256;-75
2024/01/12 09:06:17;;;;;;;81.97;39.22;;;-3.70;99.90;;;;;;5024301;28;20263;-74
2024/01/12 09:08:43;;;;;;;75.82;37.00;;;-3.70;99.90;;;;;;5023458;28;20127;-75
2024/01/12 09:11:11;;;;;;;73.00;36.30;;;-3.60;99.90;;;;;;5004993;28;20044;-77
2024/01/12 09:13:38;;;;;;;75.28;36.80;;;-3.50;99.90;;;;;;5042669;28;20036;-79
2024/01/12 09:16:13;;;;;;;68.20;36.17;;;-3.50;99.90;;;;;;5026260;28;20033;-79
2024/01/12 09:18:47;;;;;;;71.10;36.25;;;-3.50;99.90;;;;;;5043379;28;20087;-77
2024/01/12 09:21:15;;;;;;;76.32;36.90;;;-3.40;99.90;;;;;;5044122;28;20105;-79
2024/01/12 09:23:46;;;;;;;72.78;37.28;;;-3.40;99.90;;;;;;5009717;28;20071;-77
2024/01/12 09:26:24;;;;;;;68.30;35.97;;;-3.40;99.90;;;;;;5007895;28;20042;-77
2024/01/12 09:28:49;;;;;;;71.72;36.58;;;-3.30;99.90;;;;;;5023591;28;20259;-80
2024/01/12 09:31:18;;;;;;;74.30;36.47;;;-3.20;99.90;;;;;;5025434;28;20030;-74
2024/01/12 09:33:44;;;;;;;74.53;35.83;;;-3.20;99.90;;;;;;5041988;28;20157;-77
2024/01/12 09:36:31;;;;;;;67.50;34.70;;;-3.00;99.90;;;;;;5043724;28;20068;-76
2024/01/12 09:38:57;;;;;;;69.90;35.83;;;-2.90;99.90;;;;;;5043975;28;20148;-74
2024/01/12 09:42:17;;;;;;;76.95;36.33;;;-2.90;99.90;;;;;;5039308;28;20053;-74
2024/01/12 09:51:33;;;;;;;68.30;34.63;;;-2.50;99.90;;;;;;5013173;28;20050;-76
2024/01/12 09:54:31;;;;;;;64.78;34.72;;;-2.40;99.90;;;;;;5023524;28;20328;-76
2024/01/12 09:57:19;;;;;;;67.05;34.33;;;-2.40;99.90;;;;;;5022289;28;20036;-76
2024/01/12 09:59:48;;;;;;;64.85;33.67;;;-2.30;99.90;;;;;;5021086;28;20324;-76
2024/01/12 10:02:15;;;;;;;68.80;35.72;;;-2.30;99.90;;;;;;5006970;28;20038;-75
2024/01/12 10:04:43;;;;;;;66.75;33.30;;;-2.30;99.90;;;;;;4985712;28;20014;-75
2024/01/12 10:07:18;;;;;;;64.65;33.33;;;-2.30;99.90;;;;;;5003602;28;20146;-75
2024/01/12 10:09:44;;;;;;;62.17;32.20;;;-2.20;99.90;;;;;;4985237;28;20039;-76
2024/01/12 10:12:09;;;;;;;69.38;32.55;;;-2.20;99.90;;;;;;5003547;28;20034;-76
2024/01/12 10:14:41;;;;;;;62.08;33.25;;;-2.20;99.90;;;;;;4985992;28;20381;-75
2024/01/12 10:17:14;;;;;;;68.20;34.47;;;-2.00;99.90;;;;;;5003527;28;20117;-74
2024/01/12 10:19:42;;;;;;;71.30;34.30;;;-1.90;99.90;;;;;;5009699;28;20041;-76
2024/01/12 10:22:14;;;;;;;65.55;34.00;;;-1.80;99.90;;;;;;5022997;28;20038;-76
2024/01/12 10:25:04;;;;;;;59.72;32.60;;;-1.80;99.90;;;;;;5021181;28;20034;-77
2024/01/12 10:27:33;;;;;;;67.45;35.42;;;-1.60;99.90;;;;;;5017537;28;20033;-75
2024/01/12 10:30:08;;;;;;;65.75;33.47;;;-1.50;99.90;;;;;;5013676;28;20030;-75
2024/01/12 10:32:33;;;;;;;68.50;34.67;;;-1.40;99.90;;;;;;5002606;28;20030;-75
2024/01/12 10:34:59;;;;;;;64.90;33.90;;;-1.40;99.90;;;;;;5002124;28;20213;-74
2024/01/12 10:37:26;;;;;;;66.57;34.58;;;-1.40;99.90;;;;;;5013792;28;20030;-75
2024/01/12 10:39:53;;;;;;;66.95;33.40;;;-1.30;99.90;;;;;;5001375;28;20021;-75
2024/01/12 10:42:21;;;;;;;65.78;34.85;;;-1.20;99.90;;;;;;4985439;28;20097;-78
2024/01/12 10:44:50;;;;;;;63.95;35.20;;;-1.10;99.90;;;;;;5001233;28;20218;-76
2024/01/12 10:47:22;;;;;;;64.43;34.03;;;-1.10;99.90;;;;;;5002836;28;20022;-76
2024/01/12 10:49:50;;;;;;;63.47;33.10;;;-1.10;99.90;;;;;;5002488;28;20068;-76
2024/01/12 10:52:21;;;;;;;61.70;33.78;;;-0.90;99.90;;;;;;5013678;28;20034;-76
2024/01/12 10:55:09;;;;;;;61.15;32.40;;;-0.90;99.70;;;;;;5021988;28;20296;-76
2024/01/12 10:57:37;;;;;;;62.20;32.45;;;-0.70;99.40;;;;;;5020582;28;20093;-76
2024/01/12 11:00:05;;;;;;;63.22;32.60;;;-0.50;99.40;;;;;;5011605;28;20097;-75
2024/01/12 11:02:38;;;;;;;54.33;30.38;;;-0.10;98.80;;;;;;4984922;28;20022;-77
2024/01/12 11:05:07;;;;;;;53.08;29.20;;;0.10;97.50;;;;;;5002565;28;20034;-76
2024/01/12 11:07:34;;;;;;;54.22;29.48;;;0.40;96.80;;;;;;4984982;28;20065;-75
2024/01/12 11:10:00;;;;;;;51.33;29.60;;;0.40;96.00;;;;;;5001689;28;20022;-75
2024/01/12 11:12:37;;;;;;;53.45;28.83;;;0.70;96.30;;;;;;4969325;28;20030;-75
2024/01/12 11:15:07;;;;;;;55.03;29.25;;;1.10;95.70;;;;;;5004792;28;20133;-74
2024/01/12 11:17:40;;;;;;;49.22;28.40;;;1.50;94.60;;;;;;4969044;28;20097;-77
2024/01/12 11:20:17;;;;;;;45.63;27.88;;;1.90;93.70;;;;;;4993518;28;20030;-76
2024/01/12 11:22:46;;;;;;;46.95;28.05;;;2.30;92.50;;;;;;5019114;28;20053;-75
2024/01/12 11:25:13;;;;;;;43.30;26.75;;;2.40;92.00;;;;;;4985171;28;20320;-76
2024/01/12 11:27:41;;;;;;;42.33;25.73;;;2.90;92.20;;;;;;4991849;28;20021;-75
2024/01/12 11:30:09;;;;;;;45.70;27.40;;;3.30;90.60;;;;;;4978888;28;20050;-76
2024/01/12 11:32:35;;;;;;;40.38;26.55;;;3.50;89.30;;;;;;5004077;28;20034;-75
2024/01/12 11:35:18;;;;;;;44.17;26.98;;;3.80;88.40;;;;;;4987298;28;20262;-74
2024/01/12 11:37:47;;;;;;;37.15;24.85;;;4.00;87.30;;;;;;5009102;28;20324;-75
2024/01/12 11:40:16;;;;;;;40.03;23.95;;;4.40;85.40;;;;;;5008312;28;20030;-76
2024/01/12 11:42:46;;;;;;;40.33;26.42;;;4.80;84.20;;;;;;5007702;28;20208;-76
2024/01/12 11:45:15;;;;;;;38.50;24.35;;;4.80;83.90;;;;;;5004771;28;20320;-79
2024/01/12 11:47:42;;;;;;;39.05;25.20;;;5.30;83.60;;;;;;5005508;28;20034;-75
2024/01/12 11:50:11;;;;;;;38.05;25.67;;;5.20;82.70;;;;;;5004907;28;20085;-76
2024/01/12 11:52:40;;;;;;;39.28;25.38;;;5.50;81.50;;;;;;5017413;28;20081;-77
2024/01/12 11:55:10;;;;;;;39.90;24.80;;;5.90;80.00;;;;;;5006131;28;20042;-75
2024/01/12 11:57:37;;;;;;;38.53;25.70;;;5.90;79.40;;;;;;5004148;28;20026;-77
2024/01/12 12:00:09;;;;;;;36.30;24.60;;;6.40;78.30;;;;;;5005654;28;20038;-76
2024/01/12 12:02:38;;;;;;;40.05;25.92;;;6.30;78.20;;;;;;5005017;28;20032;-77
2024/01/12 12:08:04;;;;;;;37.58;24.35;;;6.80;76.10;;;;;;4968035;28;20043;-75
2024/01/12 12:10:33;;;;;;;36.40;24.25;;;7.00;75.40;;;;;;5000664;28;20038;-75
2024/01/12 12:13:02;;;;;;;38.17;23.52;;;7.30;74.80;;;;;;4988540;28;20034;-76
2024/01/12 12:15:31;;;;;;;33.05;23.40;;;7.40;73.70;;;;;;4981225;28;20028;-79
2024/01/12 12:17:57;;;;;;;35.70;24.05;;;7.30;73.30;;;;;;5024172;28;20057;-76
2024/01/12 12:20:23;;;;;;;36.28;23.55;;;7.30;73.60;;;;;;5019585;28;20085;-75
2024/01/12 12:22:50;;;;;;;33.20;22.67;;;7.70;72.20;;;;;;5023674;28;20044;-75
2024/01/12 12:25:16;;;;;;;33.53;23.13;;;7.60;73.20;;;;;;5023428;28;20041;-75
2024/01/12 12:27:44;;;;;;;32.53;23.33;;;7.80;71.10;;;;;;5024721;28;20034;-75
2024/01/12 12:30:12;;;;;;;33.97;23.08;;;7.90;70.80;;;;;;5014738;28;20033;-74
2024/01/12 12:32:39;;;;;;;37.63;24.17;;;8.60;70.50;;;;;;5004781;28;20309;-75
2024/01/12 12:35:23;;;;;;;35.08;23.38;;;8.80;69.20;;;;;;5005237;28;20830;-77
2024/01/12 12:37:52;;;;;;;34.35;23.55;;;9.10;68.20;;;;;;5004766;28;20101;-78
2024/01/12 12:40:24;;;;;;;36.22;24.58;;;9.10;67.70;;;;;;5007026;28;20046;-76
2024/01/12 12:42:53;;;;;;;35.60;24.80;;;9.10;67.40;;;;;;5005766;28;20050;-82
2024/01/12 12:45:25;;;;;;;34.28;24.83;;;9.20;67.60;;;;;;5007383;28;20037;-78
2024/01/12 12:47:51;;;;;;;34.75;24.48;;;8.90;67.30;;;;;;5023105;28;20036;-77
2024/01/12 12:50:17;;;;;;;34.88;23.92;;;8.60;68.50;;;;;;5024570;28;20042;-76
2024/01/12 12:52:47;;;;;;;32.50;22.75;;;8.50;68.30;;;;;;5002843;28;20069;-77
2024/01/12 12:55:13;;;;;;;37.63;25.92;;;8.50;68.80;;;;;;5004747;28;20038;-74
2024/01/12 12:57:40;;;;;;;37.40;25.65;;;8.20;69.30;;;;;;5009152;28;20038;-75
2024/01/12 13:00:09;;;;;;;35.38;25.42;;;7.90;69.70;;;;;;5006945;28;20041;-76
2024/01/12 13:02:36;;;;;;;38.58;25.15;;;7.50;71.40;;;;;;5023583;28;20033;-77
2024/01/12 13:05:03;;;;;;;37.58;24.33;;;7.50;71.10;;;;;;5023029;28;20312;-76
2024/01/12 13:07:29;;;;;;;42.22;25.75;;;7.50;71.40;;;;;;5024038;28;20075;-79
2024/01/12 13:09:54;;;;;;;38.65;25.17;;;7.00;72.40;;;;;;5018025;28;20029;-76
2024/01/12 13:12:20;;;;;;;43.90;26.25;;;6.70;73.50;;;;;;5026085;28;20036;-76
2024/01/12 13:14:46;;;;;;;42.88;26.13;;;6.30;74.40;;;;;;5023959;28;20073;-74
2024/01/12 13:17:12;;;;;;;38.20;24.98;;;5.80;75.60;;;;;;5004573;28;20093;-76
2024/01/12 13:19:37;;;;;;;41.50;25.00;;;5.90;76.20;;;;;;5003990;28;20323;-74
2024/01/12 13:22:04;;;;;;;39.35;26.10;;;5.80;76.10;;;;;;5006235;28;20026;-74
2024/01/12 13:24:30;;;;;;;41.38;25.50;;;5.70;77.30;;;;;;5006034;28;20320;-75